Time;durP1;ratioP1;P1;durP2;ratioP2;P2;SDS_P1;SDS_P2;PMS_P1;PMS_P2;Temp;Humidity;BMP_temperature;BMP_pressure;BME280_temperature;BME280_humidity;BME280_pressure;Samples;Min_cycle;Max_cycle;Signal;HPM_P1;HPM_P2
2021/09/08 00:02:20;;;;;;;;;;;;;;;;;;10312889;28;19982;-64
2021/09/08 00:07:17;;;;;;;;;;;;;;;;;;10312508;28;20369;-63
2021/09/08 00:12:14;;;;;;;;;;;;;;;;;;10311533;28;20028;-64
2021/09/08 00:17:12;;;;;;;;;;;;;;;;;;10306529;28;20283;-63
2021/09/08 00:22:09;;;;;;;;;;;;;;;;;;10316560;28;20324;-64
2021/09/08 00:27:07;;;;;;;;;;;;;;;;;;10307831;28;19916;-64
2021/09/08 00:32:04;;;;;;;;;;;;;;;;;;10306277;28;19920;-64
2021/09/08 00:37:02;;;;;;;;;;;;;;;;;;10302710;28;19928;-64
2021/09/08 00:41:59;;;;;;;;;;;;;;;;;;10306848;28;20453;-63
2021/09/08 00:46:57;;;;;;;;;;;;;;;;;;10312339;28;20347;-63
2021/09/08 00:51:56;;;;;;;;;;;;;;;;;;10308768;28;19916;-64
2021/09/08 00:56:54;;;;;;;;;;;;;;;;;;10315632;28;20004;-63
2021/09/08 01:01:51;;;;;;;;;;;;;;;;;;10296088;28;20396;-64
2021/09/08 01:06:48;;;;;;;;;;;;;;;;;;10283871;28;20299;-63
2021/09/08 01:11:46;;;;;;;;;;;;;;;;;;10311688;28;19924;-64
2021/09/08 01:16:44;;;;;;;;;;;;;;;;;;10317298;28;20262;-64
2021/09/08 01:21:41;;;;;;;;;;;;;;;;;;10318985;28;20051;-63
2021/09/08 01:26:39;;;;;;;;;;;;;;;;;;10324022;28;20084;-64
2021/09/08 01:31:36;;;;;;;;;;;;;;;;;;10307956;28;19975;-64
2021/09/08 01:36:33;;;;;;;;;;;;;;;;;;10310470;28;19913;-64
2021/09/08 01:41:30;;;;;;;;;;;;;;;;;;10311365;28;20145;-64
2021/09/08 01:46:28;;;;;;;;;;;;;;;;;;10324478;28;20399;-64
2021/09/08 01:51:25;;;;;;;;;;;;;;;;;;10315168;28;20375;-64
2021/09/08 01:56:22;;;;;;;;;;;;;;;;;;10320842;28;19919;-64
2021/09/08 02:01:23;;;;;;;;;;;;;;;;;;10308572;28;19912;-64
2021/09/08 02:06:20;;;;;;;;;;;;;;;;;;10324018;28;19920;-64
2021/09/08 02:11:17;;;;;;;;;;;;;;;;;;10318236;28;19928;-64
2021/09/08 02:16:20;;;;;;;;;;;;;;;;;;10294444;28;19964;-64
2021/09/08 02:21:18;;;;;;;;;;;;;;;;;;10312987;28;19919;-64
2021/09/08 02:26:15;;;;;;;;;;;;;;;;;;10321063;28;19930;-64
2021/09/08 02:31:12;;;;;;;;;;;;;;;;;;10328912;28;20027;-64
2021/09/08 02:36:10;;;;;;;;;;;;;;;;;;10330283;28;20335;-64
2021/09/08 02:41:08;;;;;;;;;;;;;;;;;;10331334;28;19938;-64
2021/09/08 02:46:06;;;;;;;;;;;;;;;;;;10321614;28;20019;-64
2021/09/08 02:51:03;;;;;;;;;;;;;;;;;;10327397;28;19968;-64
2021/09/08 02:56:00;;;;;;;;;;;;;;;;;;10325416;28;19919;-64
2021/09/08 03:00:58;;;;;;;;;;;;;;;;;;10326208;28;19940;-64
2021/09/08 03:05:55;;;;;;;;;;;;;;;;;;10334776;28;19920;-63
2021/09/08 03:10:52;;;;;;;;;;;;;;;;;;10319780;28;19917;-63
2021/09/08 03:15:50;;;;;;;;;;;;;;;;;;10304740;28;19920;-64
2021/09/08 03:20:47;;;;;;;;;;;;;;;;;;10293540;28;19913;-63
2021/09/08 03:25:44;;;;;;;;;;;;;;;;;;10340099;28;19920;-64
2021/09/08 03:30:41;;;;;;;;;;;;;;;;;;10343338;28;20032;-64
2021/09/08 03:35:39;;;;;;;;;;;;;;;;;;10319150;28;20271;-64
2021/09/08 03:40:36;;;;;;;;;;;;;;;;;;10301893;28;19960;-64
2021/09/08 03:45:33;;;;;;;;;;;;;;;;;;10335065;28;19917;-64
2021/09/08 03:50:31;;;;;;;;;;;;;;;;;;10343710;28;20375;-64
2021/09/08 03:55:28;;;;;;;;;;;;;;;;;;10325691;28;19916;-64
2021/09/08 04:00:26;;;;;;;;;;;;;;;;;;10343817;28;19952;-64
2021/09/08 04:05:23;;;;;;;;;;;;;;;;;;10333783;28;19920;-64
2021/09/08 04:10:20;;;;;;;;;;;;;;;;;;10300130;28;19924;-63
2021/09/08 04:15:18;;;;;;;;;;;;;;;;;;10316752;23;20211;-60
2021/09/08 04:20:15;;;;;;;;;;;;;;;;;;10313729;28;20259;-61
2021/09/08 04:25:12;;;;;;;;;;;;;;;;;;10319359;28;19921;-61
2021/09/08 04:30:09;;;;;;;;;;;;;;;;;;10326857;28;19925;-60
2021/09/08 04:35:07;;;;;;;;;;;;;;;;;;10314791;28;20007;-61
2021/09/08 04:40:04;;;;;;;;;;;;;;;;;;10318337;28;19919;-58
2021/09/08 04:45:02;;;;;;;;;;;;;;;;;;10304393;28;19923;-60
2021/09/08 04:49:59;;;;;;;;;;;;;;;;;;10319852;28;19916;-60
2021/09/08 04:54:56;;;;;;;;;;;;;;;;;;10328467;28;19919;-60
2021/09/08 04:59:53;;;;;;;;;;;;;;;;;;10328351;28;20020;-61
2021/09/08 05:04:51;;;;;;;;;;;;;;;;;;10335248;28;19996;-60
2021/09/08 05:09:48;;;;;;;;;;;;;;;;;;10314690;28;19920;-60
2021/09/08 05:14:45;;;;;;;;;;;;;;;;;;10311710;28;20425;-57
2021/09/08 05:19:43;;;;;;;;;;;;;;;;;;10325298;28;20019;-60
2021/09/08 05:24:40;;;;;;;;;;;;;;;;;;10324186;28;19932;-60
2021/09/08 05:29:37;;;;;;;;;;;;;;;;;;10330633;28;19939;-61
2021/09/08 05:34:35;;;;;;;;;;;;;;;;;;10327762;28;20016;-60
2021/09/08 05:39:32;;;;;;;;;;;;;;;;;;10329425;28;19913;-60
2021/09/08 05:44:29;;;;;;;;;;;;;;;;;;10328989;28;19968;-60
2021/09/08 05:49:26;;;;;;;;;;;;;;;;;;10304009;28;20410;-58
2021/09/08 05:54:24;;;;;;;;;;;;;;;;;;10331540;28;19948;-60
2021/09/08 05:59:21;;;;;;;;;;;;;;;;;;10327208;28;19928;-61
2021/09/08 06:04:18;;;;;;;;;;;;;;;;;;10330748;28;20398;-61
2021/09/08 06:09:16;;;;;;;;;;;;;;;;;;10316801;28;19920;-60
2021/09/08 06:14:13;;;;;;;;;;;;;;;;;;10314523;28;19916;-60
2021/09/08 06:19:11;;;;;;;;;;;;;;;;;;10310166;28;20327;-60
2021/09/08 06:24:10;;;;;;;;;;;;;;;;;;10320461;28;19917;-60
2021/09/08 06:29:07;;;;;;;;;;;;;;;;;;10324487;28;20370;-60
2021/09/08 06:34:04;;;;;;;;;;;;;;;;;;10325211;28;19991;-59
2021/09/08 06:39:02;;;;;;;;;;;;;;;;;;10322263;28;20268;-60
2021/09/08 06:44:01;;;;;;;;;;;;;;;;;;10316284;28;19995;-60
2021/09/08 06:48:58;;;;;;;;;;;;;;;;;;10307736;28;20002;-60
2021/09/08 06:53:55;;;;;;;;;;;;;;;;;;10282172;28;19921;-60
2021/09/08 06:58:52;;;;;;;;;;;;;;;;;;10324837;28;20132;-60
2021/09/08 07:03:50;;;;;;;;;;;;;;;;;;10303792;28;19920;-60
2021/09/08 07:08:47;;;;;;;;;;;;;;;;;;10290705;28;19917;-60
2021/09/08 07:13:44;;;;;;;;;;;;;;;;;;10319961;28;19917;-61
2021/09/08 07:18:42;;;;;;;;;;;;;;;;;;10319634;28;20084;-60
2021/09/08 07:23:39;;;;;;;;;;;;;;;;;;10322708;28;20357;-61
2021/09/08 07:28:36;;;;;;;;;;;;;;;;;;10320350;28;19919;-60
2021/09/08 07:33:33;;;;;;;;;;;;;;;;;;10281838;28;19927;-61
2021/09/08 07:38:31;;;;;;;;;;;;;;;;;;10294009;28;19912;-59
2021/09/08 07:43:28;;;;;;;;;;;;;;;;;;10312055;28;19988;-61
2021/09/08 07:48:25;;;;;;;;;;;;;;;;;;10307438;28;19912;-61
2021/09/08 07:53:22;;;;;;;;;;;;;;;;;;10305660;28;19935;-61
2021/09/08 07:58:20;;;;;;;;;;;;;;;;;;10300725;28;20404;-59
2021/09/08 08:03:17;;;;;;;;;;;;;;;;;;10312490;28;19964;-59
2021/09/08 08:08:14;;;;;;;;;;;;;;;;;;10307162;28;19916;-60
2021/09/08 08:13:12;;;;;;;;;;;;;;;;;;10304234;28;19916;-59
2021/09/08 08:18:09;;;;;;;;;;;;;;;;;;10309337;28;19920;-60
2021/09/08 08:23:06;;;;;;;;;;;;;;;;;;10317701;28;19915;-60
2021/09/08 08:28:07;;;;;;;;;;;;;;;;;;10290514;28;19928;-60
2021/09/08 08:33:04;;;;;;;;;;;;;;;;;;10320886;28;19920;-60
2021/09/08 08:38:02;;;;;;;;;;;;;;;;;;10307324;28;19916;-60
2021/09/08 08:42:59;;;;;;;;;;;;;;;;;;10323045;28;20397;-60
2021/09/08 08:47:56;;;;;;;;;;;;;;;;;;10322417;28;20015;-60
2021/09/08 08:52:54;;;;;;;;;;;;;;;;;;10318467;28;19917;-60
2021/09/08 08:57:51;;;;;;;;;;;;;;;;;;10322004;28;19916;-60
2021/09/08 09:02:48;;;;;;;;;;;;;;;;;;10297854;28;19917;-60
2021/09/08 09:07:45;;;;;;;;;;;;;;;;;;10293928;28;20342;-60
2021/09/08 09:12:44;;;;;;;;;;;;;;;;;;10295978;28;20371;-60
2021/09/08 09:17:41;;;;;;;;;;;;;;;;;;10303950;28;20612;-61
2021/09/08 09:22:39;;;;;;;;;;;;;;;;;;10317714;28;19912;-60
2021/09/08 09:27:36;;;;;;;;;;;;;;;;;;10312689;28;20392;-60
2021/09/08 09:32:33;;;;;;;;;;;;;;;;;;10311022;28;19967;-60
2021/09/08 09:37:30;;;;;;;;;;;;;;;;;;10296519;28;19919;-61
2021/09/08 09:42:31;;;;;;;;;;;;;;;;;;10324892;28;19924;-61
2021/09/08 09:47:28;;;;;;;;;;;;;;;;;;10324760;28;19916;-61
2021/09/08 09:52:26;;;;;;;;;;;;;;;;;;10295320;28;20370;-61
2021/09/08 09:57:24;;;;;;;;;;;;;;;;;;10313115;28;20294;-60
2021/09/08 10:02:21;;;;;;;;;;;;;;;;;;10314024;28;19996;-61
2021/09/08 10:07:19;;;;;;;;;;;;;;;;;;10308535;28;19912;-60
2021/09/08 10:12:16;;;;;;;;;;;;;;;;;;10304066;28;19928;-61
2021/09/08 10:17:13;;;;;;;;;;;;;;;;;;10327325;28;19932;-61
2021/09/08 10:22:10;;;;;;;;;;;;;;;;;;10325887;28;19916;-61
2021/09/08 10:27:08;;;;;;;;;;;;;;;;;;10315464;28;20307;-61
2021/09/08 10:32:05;;;;;;;;;;;;;;;;;;10305395;28;19920;-61
2021/09/08 10:37:02;;;;;;;;;;;;;;;;;;10312306;28;19959;-61
2021/09/08 10:41:59;;;;;;;;;;;;;;;;;;10302671;28;20676;-60
2021/09/08 10:46:57;;;;;;;;;;;;;;;;;;10309706;28;19912;-61
2021/09/08 10:51:54;;;;;;;;;;;;;;;;;;10314283;28;19921;-61
2021/09/08 10:56:52;;;;;;;;;;;;;;;;;;10303292;28;19913;-61
2021/09/08 11:01:49;;;;;;;;;;;;;;;;;;10317966;28;19921;-61
2021/09/08 11:06:47;;;;;;;;;;;;;;;;;;10311195;28;19986;-61
2021/09/08 11:11:45;;;;;;;;;;;;;;;;;;10314136;28;19924;-61
2021/09/08 11:16:42;;;;;;;;;;;;;;;;;;10310305;28;19921;-60
2021/09/08 11:21:39;;;;;;;;;;;;;;;;;;10319904;28;19959;-61
2021/09/08 11:26:37;;;;;;;;;;;;;;;;;;10319820;28;19944;-61
2021/09/08 11:31:34;;;;;;;;;;;;;;;;;;10304535;28;19960;-61
2021/09/08 11:36:31;;;;;;;;;;;;;;;;;;10296805;28;19959;-61
2021/09/08 11:41:30;;;;;;;;;;;;;;;;;;10318738;28;19923;-61
2021/09/08 11:46:27;;;;;;;;;;;;;;;;;;10321099;28;19955;-61
2021/09/08 11:51:24;;;;;;;;;;;;;;;;;;10315689;28;19916;-61
2021/09/08 11:56:22;;;;;;;;;;;;;;;;;;10301870;28;19916;-61
2021/09/08 12:01:19;;;;;;;;;;;;;;;;;;10309796;28;20592;-61
2021/09/08 12:06:17;;;;;;;;;;;;;;;;;;10307087;28;19948;-61
2021/09/08 12:11:14;;;;;;;;;;;;;;;;;;10314623;28;19967;-61
2021/09/08 12:16:11;;;;;;;;;;;;;;;;;;10294384;28;20338;-61
2021/09/08 12:21:08;;;;;;;;;;;;;;;;;;10324550;28;19924;-61
2021/09/08 12:26:06;;;;;;;;;;;;;;;;;;10301084;28;19921;-60
2021/09/08 12:31:03;;;;;;;;;;;;;;;;;;10295007;28;19917;-61
2021/09/08 12:36:01;;;;;;;;;;;;;;;;;;10308979;28;19928;-61
2021/09/08 12:40:58;;;;;;;;;;;;;;;;;;10303165;28;19956;-61
2021/09/08 12:45:55;;;;;;;;;;;;;;;;;;10312084;28;20305;-62
2021/09/08 12:50:52;;;;;;;;;;;;;;;;;;10294302;28;19923;-61
2021/09/08 12:55:49;;;;;;;;;;;;;;;;;;10305520;28;19920;-62
2021/09/08 13:00:47;;;;;;;;;;;;;;;;;;10308471;28;20359;-61
2021/09/08 13:05:44;;;;;;;;;;;;;;;;;;10309325;28;19912;-61
2021/09/08 13:10:41;;;;;;;;;;;;;;;;;;10320654;28;19917;-61
2021/09/08 13:15:39;;;;;;;;;;;;;;;;;;10328670;28;19924;-62
2021/09/08 13:20:36;;;;;;;;;;;;;;;;;;10320844;28;19912;-61
2021/09/08 13:25:33;;;;;;;;;;;;;;;;;;10341714;28;19999;-62
2021/09/08 13:30:30;;;;;;;;;;;;;;;;;;10328078;28;20354;-62
2021/09/08 13:35:28;;;;;;;;;;;;;;;;;;10315549;28;19916;-62
2021/09/08 13:40:26;;;;;;;;;;;;;;;;;;10313605;28;19960;-62
2021/09/08 13:45:25;;;;;;;;;;;;;;;;;;10317966;28;19948;-61
2021/09/08 13:50:22;;;;;;;;;;;;;;;;;;10326085;28;20434;-61
2021/09/08 13:55:19;;;;;;;;;;;;;;;;;;10297362;28;20346;-61
2021/09/08 14:00:16;;;;;;;;;;;;;;;;;;10332205;28;19921;-62
2021/09/08 14:05:14;;;;;;;;;;;;;;;;;;10323824;28;20492;-61
2021/09/08 14:10:11;;;;;;;;;;;;;;;;;;10308820;28;20395;-61
2021/09/08 14:15:08;;;;;;;;;;;;;;;;;;10316082;28;20259;-61
2021/09/08 14:20:06;;;;;;;;;;;;;;;;;;10330892;28;19967;-61
2021/09/08 14:25:03;;;;;;;;;;;;;;;;;;10330813;28;19912;-61
2021/09/08 14:30:00;;;;;;;;;;;;;;;;;;10311907;28;19917;-61
2021/09/08 14:34:58;;;;;;;;;;;;;;;;;;10320628;28;20257;-61
2021/09/08 14:39:55;;;;;;;;;;;;;;;;;;10332587;28;19975;-61
2021/09/08 14:44:52;;;;;;;;;;;;;;;;;;10333211;28;20422;-60
2021/09/08 14:49:50;;;;;;;;;;;;;;;;;;10323381;28;19913;-61
2021/09/08 14:54:47;;;;;;;;;;;;;;;;;;10327999;28;19913;-61
2021/09/08 14:59:44;;;;;;;;;;;;;;;;;;10315738;28;19965;-61
2021/09/08 15:04:42;;;;;;;;;;;;;;;;;;10326658;28;20370;-61
2021/09/08 15:09:41;;;;;;;;;;;;;;;;;;10347193;28;19920;-63
2021/09/08 15:14:38;;;;;;;;;;;;;;;;;;10346482;28;19991;-62
2021/09/08 15:19:36;;;;;;;;;;;;;;;;;;10346256;28;19947;-61
2021/09/08 15:24:34;;;;;;;;;;;;;;;;;;10346645;28;19904;-63
2021/09/08 15:29:31;;;;;;;;;;;;;;;;;;10346031;28;19911;-62
2021/09/08 15:34:29;;;;;;;;;;;;;;;;;;10345520;28;19913;-63
2021/09/08 15:39:26;;;;;;;;;;;;;;;;;;10346149;28;19909;-63
2021/09/08 15:44:23;;;;;;;;;;;;;;;;;;10345350;28;19972;-62
2021/09/08 15:49:21;;;;;;;;;;;;;;;;;;10308620;28;20256;-62
2021/09/08 15:54:18;;;;;;;;;;;;;;;;;;10304157;28;19920;-63
2021/09/08 15:59:15;;;;;;;;;;;;;;;;;;10304149;28;19917;-61
2021/09/08 16:04:12;;;;;;;;;;;;;;;;;;10304548;28;19917;-63
2021/09/08 16:09:10;;;;;;;;;;;;;;;;;;10303707;28;19919;-63
2021/09/08 16:14:07;;;;;;;;;;;;;;;;;;10303548;28;19925;-63
2021/09/08 16:19:06;;;;;;;;;;;;;;;;;;10303191;28;19924;-62
2021/09/08 16:24:04;;;;;;;;;;;;;;;;;;10303248;28;20408;-59
2021/09/08 16:29:01;;;;;;;;;;;;;;;;;;10303729;28;19941;-62
2021/09/08 16:33:58;;;;;;;;;;;;;;;;;;10302328;28;20131;-61
2021/09/08 16:38:56;;;;;;;;;;;;;;;;;;10303104;28;19921;-62
2021/09/08 16:43:53;;;;;;;;;;;;;;;;;;10302868;28;20047;-62
2021/09/08 16:48:50;;;;;;;;;;;;;;;;;;10293827;28;20019;-61
2021/09/08 16:53:48;;;;;;;;;;;;;;;;;;10311845;28;19971;-63
2021/09/08 16:58:46;;;;;;;;;;;;;;;;;;10311455;28;19913;-61
2021/09/08 17:03:43;;;;;;;;;;;;;;;;;;10311391;28;19959;-62
2021/09/08 17:08:40;;;;;;;;;;;;;;;;;;10310660;28;20372;-61
2021/09/08 17:13:37;;;;;;;;;;;;;;;;;;10310541;28;20017;-62
2021/09/08 17:18:35;;;;;;;;;;;;;;;;;;10293037;28;20090;-61
2021/09/08 17:23:32;;;;;;;;;;;;;;;;;;10310591;28;20020;-62
2021/09/08 17:28:29;;;;;;;;;;;;;;;;;;10310323;28;20599;-60
2021/09/08 17:33:28;;;;;;;;;;;;;;;;;;10309996;28;19967;-64
2021/09/08 17:38:25;;;;;;;;;;;;;;;;;;10309705;28;19948;-63
2021/09/08 17:43:24;;;;;;;;;;;;;;;;;;10298071;28;19994;-60
2021/09/08 17:48:21;;;;;;;;;;;;;;;;;;10328798;28;19993;-60
2021/09/08 17:53:19;;;;;;;;;;;;;;;;;;10319142;28;19917;-60
2021/09/08 17:58:17;;;;;;;;;;;;;;;;;;10321429;28;21059;-60
2021/09/08 18:03:14;;;;;;;;;;;;;;;;;;10334890;28;20611;-61
2021/09/08 18:08:14;;;;;;;;;;;;;;;;;;10328964;28;19917;-61
2021/09/08 18:13:12;;;;;;;;;;;;;;;;;;10321540;28;20505;-61
2021/09/08 18:18:09;;;;;;;;;;;;;;;;;;10327795;28;20573;-62
2021/09/08 18:23:08;;;;;;;;;;;;;;;;;;10301773;28;19916;-60
2021/09/08 18:28:07;;;;;;;;;;;;;;;;;;10324574;28;19913;-59
2021/09/08 18:33:04;;;;;;;;;;;;;;;;;;10306449;28;19917;-58
2021/09/08 18:38:02;;;;;;;;;;;;;;;;;;10305068;28;20383;-61
2021/09/08 18:42:59;;;;;;;;;;;;;;;;;;10328830;28;19986;-60
2021/09/08 18:47:56;;;;;;;;;;;;;;;;;;10319919;28;19913;-59
2021/09/08 18:52:54;;;;;;;;;;;;;;;;;;10336289;28;20379;-57
2021/09/08 18:57:51;;;;;;;;;;;;;;;;;;10331160;28;20367;-60
2021/09/08 19:02:48;;;;;;;;;;;;;;;;;;10334822;28;19917;-59
2021/09/08 19:07:45;;;;;;;;;;;;;;;;;;10324278;28;19955;-59
2021/09/08 19:12:44;;;;;;;;;;;;;;;;;;10330913;28;19931;-59
2021/09/08 19:17:43;;;;;;;;;;;;;;;;;;10328459;28;19928;-62
2021/09/08 19:22:41;;;;;;;;;;;;;;;;;;10334192;28;19940;-62
2021/09/08 19:27:38;;;;;;;;;;;;;;;;;;10327826;28;19948;-60
2021/09/08 19:32:35;;;;;;;;;;;;;;;;;;10322175;28;19928;-61
2021/09/08 19:37:33;;;;;;;;;;;;;;;;;;10322901;28;19913;-62
2021/09/08 19:42:30;;;;;;;;;;;;;;;;;;10332707;28;19916;-63
2021/09/08 19:47:27;;;;;;;;;;;;;;;;;;10321996;28;20003;-63
2021/09/08 19:52:25;;;;;;;;;;;;;;;;;;10318012;28;19917;-64
2021/09/08 19:57:22;;;;;;;;;;;;;;;;;;10317918;28;20295;-61
2021/09/08 20:02:20;;;;;;;;;;;;;;;;;;10303655;28;20381;-59
2021/09/08 20:07:19;;;;;;;;;;;;;;;;;;10308959;28;20702;-59
2021/09/08 20:12:16;;;;;;;;;;;;;;;;;;10313704;28;20680;-59
2021/09/08 20:17:13;;;;;;;;;;;;;;;;;;10304910;28;20007;-60
2021/09/08 20:22:11;;;;;;;;;;;;;;;;;;10293901;28;19923;-61
2021/09/08 20:27:08;;;;;;;;;;;;;;;;;;10316476;28;19917;-61
2021/09/08 20:32:05;;;;;;;;;;;;;;;;;;10305764;28;19928;-58
2021/09/08 20:37:03;;;;;;;;;;;;;;;;;;10311639;28;20133;-59
2021/09/08 20:42:00;;;;;;;;;;;;;;;;;;10321230;28;20518;-59
2021/09/08 20:46:57;;;;;;;;;;;;;;;;;;10320035;28;20015;-60
2021/09/08 20:51:54;;;;;;;;;;;;;;;;;;10302425;28;19917;-63
2021/09/08 20:56:52;;;;;;;;;;;;;;;;;;10308748;28;19924;-56
2021/09/08 21:01:49;;;;;;;;;;;;;;;;;;10307009;28;19921;-58
2021/09/08 21:06:46;;;;;;;;;;;;;;;;;;10308849;28;19912;-59
2021/09/08 21:11:44;;;;;;;;;;;;;;;;;;10310658;28;19917;-58
2021/09/08 21:16:41;;;;;;;;;;;;;;;;;;10291999;28;19917;-60
2021/09/08 21:21:38;;;;;;;;;;;;;;;;;;10297421;28;20013;-62
2021/09/08 21:26:35;;;;;;;;;;;;;;;;;;10296176;28;20396;-57
2021/09/08 21:31:33;;;;;;;;;;;;;;;;;;10294949;28;20090;-57
2021/09/08 21:36:30;;;;;;;;;;;;;;;;;;10330154;28;19920;-60
2021/09/08 21:41:27;;;;;;;;;;;;;;;;;;10319431;28;20267;-62
2021/09/08 21:46:24;;;;;;;;;;;;;;;;;;10323196;28;19913;-58
2021/09/08 21:51:22;;;;;;;;;;;;;;;;;;10310949;28;19925;-58
2021/09/08 21:56:19;;;;;;;;;;;;;;;;;;10334138;28;20294;-58
2021/09/08 22:01:16;;;;;;;;;;;;;;;;;;10320921;28;19913;-61
2021/09/08 22:06:14;;;;;;;;;;;;;;;;;;10315652;28;19913;-60
2021/09/08 22:11:11;;;;;;;;;;;;;;;;;;10317941;28;20358;-62
2021/09/08 22:16:08;;;;;;;;;;;;;;;;;;10318512;28;19978;-58
2021/09/08 22:21:05;;;;;;;;;;;;;;;;;;10308135;28;19937;-61
2021/09/08 22:26:03;;;;;;;;;;;;;;;;;;10319122;28;19913;-60
2021/09/08 22:31:00;;;;;;;;;;;;;;;;;;10322911;28;19924;-59
2021/09/08 22:35:58;;;;;;;;;;;;;;;;;;10323215;28;19925;-62
2021/09/08 22:40:55;;;;;;;;;;;;;;;;;;10326387;28;19932;-60
2021/09/08 22:45:54;;;;;;;;;;;;;;;;;;10306288;28;20278;-57
2021/09/08 22:50:51;;;;;;;;;;;;;;;;;;10312603;28;20007;-63
2021/09/08 22:55:49;;;;;;;;;;;;;;;;;;10297164;28;19917;-61
2021/09/08 23:00:47;;;;;;;;;;;;;;;;;;10317929;28;20136;-60
2021/09/08 23:05:44;;;;;;;;;;;;;;;;;;10295192;28;20003;-59
2021/09/08 23:10:42;;;;;;;;;;;;;;;;;;10310530;28;19917;-56
2021/09/08 23:15:39;;;;;;;;;;;;;;;;;;10308948;28;19917;-58
2021/09/08 23:20:37;;;;;;;;;;;;;;;;;;10293553;28;19913;-62
2021/09/08 23:25:36;;;;;;;;;;;;;;;;;;10319604;28;19924;-58
2021/09/08 23:30:34;;;;;;;;;;;;;;;;;;10320850;28;20354;-58
2021/09/08 23:35:32;;;;;;;;;;;;;;;;;;10314385;28;20007;-58
2021/09/08 23:40:31;;;;;;;;;;;;;;;;;;10305154;28;19958;-57
2021/09/08 23:45:29;;;;;;;;;;;;;;;;;;10305581;28;19917;-56
2021/09/08 23:50:27;;;;;;;;;;;;;;;;;;10305140;28;19971;-57
2021/09/08 23:55:24;;;;;;;;;;;;;;;;;;10310559;28;19959;-56
